createdAt,value
2019-01-17T00:00:59.640Z,2.58
2019-01-17T00:03:45.719Z,2.63
2019-01-17T00:06:31.949Z,2.60
2019-01-17T00:09:14.202Z,2.60
2019-01-17T00:11:56.104Z,2.57
2019-01-17T00:14:31.910Z,2.66
2019-01-17T00:20:20.227Z,2.52
2019-01-17T00:23:05.279Z,2.54
2019-01-17T00:25:51.766Z,2.52
2019-01-17T00:28:36.867Z,2.52
2019-01-17T00:31:12.546Z,2.60
2019-01-17T00:33:42.696Z,2.57
2019-01-17T00:36:30.687Z,2.58
2019-01-17T00:39:19.186Z,2.67
2019-01-17T00:41:53.906Z,2.59
2019-01-17T00:44:29.766Z,2.58
2019-01-17T00:47:14.989Z,2.65
2019-01-17T00:50:01.413Z,2.71
2019-01-17T00:52:46.450Z,2.72
2019-01-17T00:55:28.703Z,2.76
2019-01-17T00:58:01.814Z,2.78
2019-01-17T01:00:38.228Z,2.85
2019-01-17T01:03:20.414Z,2.84
2019-01-17T01:05:56.146Z,2.93
2019-01-17T01:08:41.120Z,2.96
2019-01-17T01:11:30.256Z,3.02
2019-01-17T01:14:12.240Z,2.98
2019-01-17T01:17:01.312Z,3.02
2019-01-17T01:19:37.268Z,3.08
2019-01-17T01:22:23.550Z,3.03
2019-01-17T01:25:09.952Z,3.01
2019-01-17T01:27:43.280Z,2.92
2019-01-17T01:30:16.207Z,2.86
2019-01-17T01:32:52.068Z,2.91
2019-01-17T01:35:25.146Z,2.95
2019-01-17T01:38:00.991Z,2.97
2019-01-17T01:40:47.570Z,3.03
2019-01-17T01:43:23.930Z,2.91
2019-01-17T01:45:57.134Z,2.84
2019-01-17T01:48:33.207Z,2.78
2019-01-17T01:51:25.119Z,2.76
2019-01-17T01:53:53.851Z,2.78
2019-01-17T01:56:26.776Z,2.84
2019-01-17T01:59:01.061Z,2.79
2019-01-17T02:01:29.652Z,2.80
2019-01-17T02:04:00.986Z,2.76
2019-01-17T02:06:29.744Z,2.74
2019-01-17T02:09:01.324Z,2.82
2019-01-17T02:11:32.916Z,2.79
2019-01-17T02:14:05.542Z,2.84
2019-01-17T02:16:36.868Z,2.88
2019-01-17T02:19:08.296Z,2.90
2019-01-17T02:21:39.971Z,2.89
2019-01-17T02:24:11.656Z,2.93
2019-01-17T02:26:40.265Z,2.88
2019-01-17T02:29:11.852Z,2.85
2019-01-17T02:31:43.501Z,2.87
2019-01-17T02:34:15.070Z,2.83
2019-01-17T02:36:46.605Z,2.95
2019-01-17T02:39:18.018Z,2.89
2019-01-17T02:41:46.611Z,2.88
2019-01-17T02:44:18.474Z,2.90
2019-01-17T02:46:47.033Z,3.04
2019-01-17T02:49:15.590Z,3.07
2019-01-17T02:51:44.143Z,2.99
2019-01-17T02:54:12.722Z,3.00
2019-01-17T02:56:41.265Z,2.96
2019-01-17T02:59:12.224Z,3.01
2019-01-17T03:01:44.017Z,3.18
2019-01-17T03:04:15.403Z,3.25
2019-01-17T03:06:46.685Z,3.43
2019-01-17T03:09:18.077Z,3.47
2019-01-17T03:11:49.676Z,3.57
2019-01-17T03:14:21.163Z,3.59
2019-01-17T03:16:52.566Z,3.71
2019-01-17T03:19:21.184Z,3.74
2019-01-17T03:21:49.733Z,3.77
2019-01-17T03:24:21.238Z,3.84
2019-01-17T03:26:55.967Z,3.95
2019-01-17T03:29:27.459Z,3.98
2019-01-17T03:31:56.414Z,3.95
2019-01-17T03:34:26.817Z,4.04
2019-01-17T03:37:01.334Z,4.01
2019-01-17T03:39:29.922Z,4.03
2019-01-17T03:42:01.807Z,4.01
2019-01-17T03:44:33.123Z,3.99
2019-01-17T03:47:01.708Z,4.13
2019-01-17T03:49:32.932Z,4.13
2019-01-17T03:52:01.843Z,4.10
2019-01-17T03:54:30.388Z,4.21
2019-01-17T03:57:01.890Z,4.24
2019-01-17T03:59:30.645Z,4.24
2019-01-17T04:02:02.136Z,4.14
2019-01-17T04:04:33.409Z,4.14
2019-01-17T04:07:04.966Z,4.21
2019-01-17T04:09:36.597Z,4.33
2019-01-17T04:12:08.102Z,4.33
2019-01-17T04:14:36.661Z,4.25
2019-01-17T04:17:05.222Z,4.25
2019-01-17T04:19:33.862Z,4.32
2019-01-17T04:22:02.414Z,4.40
2019-01-17T04:24:33.662Z,4.35
2019-01-17T04:27:02.225Z,4.35
2019-01-17T04:29:30.827Z,4.42
2019-01-17T04:31:59.385Z,4.52
2019-01-17T04:34:30.667Z,4.43
2019-01-17T04:37:02.359Z,4.50
2019-01-17T04:39:33.722Z,4.55
2019-01-17T04:42:05.207Z,4.55
2019-01-17T04:44:37.185Z,4.56
2019-01-17T04:47:08.522Z,4.56
2019-01-17T04:49:39.811Z,4.62
2019-01-17T04:52:11.326Z,4.62
2019-01-17T04:54:42.825Z,4.62
2019-01-17T04:57:11.445Z,4.64
2019-01-17T04:59:42.749Z,4.64
2019-01-17T05:02:14.272Z,4.65
2019-01-17T05:04:45.555Z,4.58
2019-01-17T05:07:14.274Z,4.70
2019-01-17T05:09:45.542Z,4.70
2019-01-17T05:12:14.137Z,4.68
2019-01-17T05:14:45.536Z,4.68
2019-01-17T05:17:14.294Z,4.70
2019-01-17T05:19:45.894Z,4.70
2019-01-17T05:22:17.433Z,4.81
2019-01-17T05:24:48.725Z,4.84
2019-01-17T05:27:20.356Z,4.85
2019-01-17T05:29:51.939Z,4.94
2019-01-17T05:32:20.905Z,4.93
2019-01-17T05:34:52.473Z,4.93
2019-01-17T05:37:24.055Z,4.93
2019-01-17T05:39:54.401Z,4.90
2019-01-17T05:42:25.574Z,4.88
2019-01-17T05:44:54.178Z,4.88
2019-01-17T05:47:25.409Z,4.91
2019-01-17T05:49:56.763Z,4.90
2019-01-17T05:52:28.448Z,4.90
2019-01-17T05:54:59.857Z,4.88
2019-01-17T05:57:28.841Z,4.88
2019-01-17T06:00:00.486Z,4.95
2019-01-17T06:02:31.883Z,4.96
2019-01-17T06:05:04.087Z,5.04
2019-01-17T06:07:32.709Z,4.94
2019-01-17T06:10:01.420Z,4.95
2019-01-17T06:12:30.051Z,4.95
2019-01-17T06:14:58.597Z,4.96
2019-01-17T06:17:27.145Z,5.01
2019-01-17T06:19:55.698Z,5.01
2019-01-17T06:22:24.246Z,4.96
2019-01-17T06:24:54.841Z,4.98
2019-01-17T06:27:25.494Z,5.06
2019-01-17T06:29:54.140Z,5.13
2019-01-17T06:32:23.640Z,5.16
2019-01-17T06:34:54.261Z,4.98
2019-01-17T06:37:24.232Z,4.98
2019-01-17T06:39:55.831Z,5.05
2019-01-17T06:42:25.974Z,5.05
2019-01-17T06:44:57.265Z,5.01
2019-01-17T06:47:25.910Z,5.02
2019-01-17T06:49:54.519Z,5.02
2019-01-17T06:52:23.122Z,5.06
2019-01-17T06:54:53.200Z,5.03
2019-01-17T06:57:21.741Z,5.09
2019-01-17T06:59:50.290Z,4.99
2019-01-17T07:02:18.907Z,5.00
2019-01-17T07:04:47.458Z,4.99
2019-01-17T07:07:16.009Z,4.94
2019-01-17T07:09:44.577Z,4.94
2019-01-17T07:12:13.102Z,4.97
2019-01-17T07:14:41.730Z,4.97
2019-01-17T07:17:13.222Z,4.92
2019-01-17T07:19:41.770Z,5.00
2019-01-17T07:22:10.317Z,5.05
2019-01-17T07:24:38.987Z,5.00
2019-01-17T07:27:08.016Z,4.96
2019-01-17T07:29:36.559Z,4.96
2019-01-17T07:32:05.357Z,4.86
2019-01-17T07:34:34.306Z,4.94
2019-01-17T07:37:05.812Z,4.94
2019-01-17T07:39:37.347Z,5.05
2019-01-17T07:42:09.110Z,5.13
2019-01-17T07:44:38.308Z,5.13
2019-01-17T07:47:07.105Z,5.07
2019-01-17T07:49:38.558Z,5.04
2019-01-17T07:52:10.453Z,5.08
2019-01-17T07:54:41.964Z,5.08
2019-01-17T07:57:10.549Z,5.11
2019-01-17T07:59:42.138Z,5.13
2019-01-17T08:02:10.967Z,5.15
2019-01-17T08:04:42.349Z,5.22
2019-01-17T08:07:10.968Z,5.22
2019-01-17T08:09:39.557Z,5.27
2019-01-17T08:12:11.093Z,5.27
2019-01-17T08:14:39.679Z,5.20
2019-01-17T08:17:08.244Z,5.20
2019-01-17T08:19:36.824Z,5.24
2019-01-17T08:22:05.498Z,5.31
2019-01-17T08:24:34.076Z,5.38
2019-01-17T08:27:05.614Z,5.40
2019-01-17T08:29:37.216Z,5.40
2019-01-17T08:32:05.853Z,5.48
2019-01-17T08:34:34.476Z,5.54
2019-01-17T08:37:05.980Z,5.49
2019-01-17T08:39:34.550Z,5.56
2019-01-17T08:42:06.298Z,5.56
2019-01-17T08:44:37.620Z,5.53
2019-01-17T08:47:06.158Z,5.55
2019-01-17T08:49:35.101Z,5.65
2019-01-17T08:52:03.761Z,5.77
2019-01-17T08:54:32.403Z,5.73
2019-01-17T08:57:01.302Z,5.64
2019-01-17T08:59:29.893Z,5.64
2019-01-17T09:01:58.444Z,5.75
2019-01-17T09:04:27.001Z,5.78
2019-01-17T09:06:55.644Z,5.84
2019-01-17T09:09:24.197Z,5.90
2019-01-17T09:11:53.263Z,5.97
2019-01-17T09:14:21.780Z,5.92
2019-01-17T09:16:50.329Z,5.92
2019-01-17T09:19:20.425Z,5.96
2019-01-17T09:21:49.138Z,6.06
2019-01-17T09:24:17.765Z,6.12
2019-01-17T09:26:46.322Z,6.26
2019-01-17T09:29:15.058Z,6.38
2019-01-17T09:31:43.712Z,6.42
2019-01-17T09:34:12.362Z,6.34
2019-01-17T09:36:40.983Z,6.22
2019-01-17T09:39:09.737Z,6.21
2019-01-17T09:41:38.362Z,6.21
2019-01-17T09:44:07.220Z,6.14
2019-01-17T09:46:36.104Z,6.28
2019-01-17T09:49:04.745Z,6.27
2019-01-17T09:51:33.359Z,6.40
2019-01-17T09:54:02.182Z,6.34
2019-01-17T09:56:30.804Z,6.36
2019-01-17T09:58:59.349Z,6.30
2019-01-17T10:01:31.608Z,6.51
2019-01-17T10:04:00.189Z,6.53
2019-01-17T10:06:31.476Z,6.60
2019-01-17T10:09:00.116Z,6.60
2019-01-17T10:11:28.679Z,6.76
2019-01-17T10:13:57.228Z,6.65
2019-01-17T10:16:28.842Z,6.72
2019-01-17T10:19:12.471Z,6.57
2019-01-17T10:21:54.667Z,6.70
2019-01-17T10:24:44.227Z,6.58
2019-01-17T10:27:38.573Z,6.63
2019-01-17T10:30:19.185Z,6.69
2019-01-17T10:32:56.522Z,6.88
2019-01-17T10:35:37.030Z,6.94
2019-01-17T10:38:23.816Z,6.76
2019-01-17T10:41:15.830Z,6.56
2019-01-17T10:43:53.221Z,6.66
2019-01-17T10:46:41.450Z,6.69
2019-01-17T10:49:21.980Z,6.56
2019-01-17T10:52:19.736Z,6.70
2019-01-17T10:55:35.738Z,6.73
2019-01-17T10:58:26.076Z,6.67
2019-01-17T11:01:02.210Z,6.66
2019-01-17T11:03:46.220Z,6.66
2019-01-17T11:06:58.363Z,6.58
2019-01-17T11:09:45.011Z,6.70
2019-01-17T11:12:40.804Z,6.81
2019-01-17T11:15:28.651Z,6.96
2019-01-17T11:18:12.240Z,7.06
2019-01-17T11:21:17.001Z,7.01
2019-01-17T11:24:18.490Z,7.02
2019-01-17T11:27:42.485Z,6.98
2019-01-17T11:30:25.919Z,6.88
2019-01-17T11:33:03.334Z,6.93
2019-01-17T11:35:41.719Z,6.81
2019-01-17T11:38:16.619Z,7.01
2019-01-17T11:41:06.395Z,6.97
2019-01-17T11:43:58.513Z,6.91
2019-01-17T11:46:36.026Z,6.69
2019-01-17T11:49:28.079Z,6.84
2019-01-17T11:52:25.051Z,6.82
2019-01-17T11:55:02.633Z,6.96
2019-01-17T11:57:43.490Z,7.03
2019-01-17T12:00:15.320Z,7.29
2019-01-17T12:03:22.725Z,7.25
2019-01-17T12:05:51.431Z,7.25
2019-01-17T12:08:20.051Z,7.44
2019-01-17T12:10:51.705Z,7.35
2019-01-17T12:13:25.801Z,7.40
2019-01-17T12:15:57.296Z,7.33
2019-01-17T12:18:26.105Z,7.10
2019-01-17T12:20:57.346Z,7.04
2019-01-17T12:23:28.674Z,7.02
2019-01-17T12:25:57.235Z,6.89
2019-01-17T12:28:26.216Z,6.98
2019-01-17T12:30:54.765Z,7.12
2019-01-17T12:33:25.001Z,7.33
2019-01-17T12:35:53.640Z,7.49
2019-01-17T12:38:24.094Z,7.45
2019-01-17T12:40:54.775Z,7.56
2019-01-17T12:43:24.959Z,7.74
2019-01-17T12:45:53.538Z,7.93
2019-01-17T12:48:23.892Z,8.16
2019-01-17T12:50:52.560Z,8.24
2019-01-17T12:53:21.125Z,8.25
2019-01-17T12:55:49.683Z,8.01
2019-01-17T12:58:18.228Z,7.94
2019-01-17T13:00:47.100Z,8.04
2019-01-17T13:03:15.722Z,8.21
2019-01-17T13:05:44.353Z,7.74
2019-01-17T13:08:13.000Z,7.57
2019-01-17T13:10:41.611Z,7.41
2019-01-17T13:13:10.164Z,7.27
2019-01-17T13:15:39.139Z,7.03
2019-01-17T13:18:07.850Z,7.05
2019-01-17T13:20:39.607Z,7.12
2019-01-17T13:23:11.062Z,7.08
2019-01-17T13:25:39.737Z,7.08
2019-01-17T13:28:08.293Z,7.00
2019-01-17T13:30:37.667Z,6.94
2019-01-17T13:33:06.290Z,6.92
2019-01-17T13:35:34.906Z,6.93
2019-01-17T13:38:03.502Z,6.93
2019-01-17T13:40:35.102Z,6.94
2019-01-17T13:43:03.636Z,6.95
2019-01-17T13:45:32.187Z,7.12
2019-01-17T13:48:00.775Z,7.35
2019-01-17T13:50:29.317Z,7.48
2019-01-17T13:52:58.030Z,7.53
2019-01-17T13:55:29.969Z,7.39
2019-01-17T13:57:58.519Z,7.29
2019-01-17T14:00:27.324Z,7.45
2019-01-17T14:02:58.799Z,7.51
2019-01-17T14:05:27.418Z,7.31
2019-01-17T14:07:55.973Z,7.11
2019-01-17T14:10:27.474Z,6.95
2019-01-17T14:12:58.817Z,6.83
2019-01-17T14:15:30.293Z,6.60
2019-01-17T14:17:58.881Z,6.43
2019-01-17T14:20:27.503Z,6.34
2019-01-17T14:22:58.786Z,6.27
2019-01-17T14:25:27.324Z,6.22
2019-01-17T14:27:56.037Z,6.11
2019-01-17T14:30:33.653Z,5.97
2019-01-17T14:33:05.735Z,6.01
2019-01-17T14:35:37.418Z,6.02
2019-01-17T14:38:06.038Z,5.98
2019-01-17T14:40:34.581Z,5.94
2019-01-17T14:43:03.193Z,5.77
2019-01-17T14:45:31.804Z,5.74
2019-01-17T14:48:00.431Z,5.72
2019-01-17T14:50:30.917Z,5.64
2019-01-17T14:52:59.544Z,5.43
2019-01-17T14:55:28.066Z,5.28
2019-01-17T14:57:57.038Z,5.15
2019-01-17T15:03:08.007Z,5.01
2019-01-17T15:05:39.988Z,4.94
2019-01-17T15:08:11.614Z,4.87
2019-01-17T15:10:40.377Z,4.73
2019-01-17T15:13:09.304Z,4.73
2019-01-17T15:15:38.061Z,4.67
2019-01-17T15:18:07.257Z,4.58
2019-01-17T15:20:38.615Z,4.58
2019-01-17T15:23:07.168Z,4.44
2019-01-17T15:25:35.792Z,4.44
2019-01-17T15:28:05.869Z,4.44
2019-01-17T15:30:37.728Z,4.44
2019-01-17T15:33:06.276Z,4.39
2019-01-17T15:35:34.935Z,4.37
2019-01-17T15:38:03.565Z,4.53
2019-01-17T15:40:32.298Z,4.40
2019-01-17T15:43:04.107Z,4.40
2019-01-17T15:45:32.643Z,4.20
2019-01-17T15:48:01.253Z,4.20
2019-01-17T15:50:29.881Z,4.15
2019-01-17T15:52:58.524Z,4.05
2019-01-17T15:55:30.110Z,3.94
2019-01-17T15:57:58.660Z,3.86
2019-01-17T16:00:31.147Z,3.89
2019-01-17T16:02:59.761Z,3.81
2019-01-17T16:05:31.373Z,3.77
2019-01-17T16:07:59.924Z,3.77
2019-01-17T16:10:28.470Z,3.67
2019-01-17T16:12:59.701Z,3.73
2019-01-17T16:15:28.871Z,3.79
2019-01-17T16:18:00.583Z,3.84
2019-01-17T16:20:29.230Z,3.83
2019-01-17T16:22:57.845Z,3.88
2019-01-17T16:25:26.568Z,3.95
2019-01-17T16:27:57.140Z,3.94
2019-01-17T16:30:28.228Z,3.94
2019-01-17T16:32:57.379Z,3.99
2019-01-17T16:35:25.988Z,3.86
2019-01-17T16:37:57.832Z,3.83
2019-01-17T16:40:26.380Z,3.83
2019-01-17T16:42:58.129Z,3.90
2019-01-17T16:45:26.816Z,3.87
2019-01-17T16:48:02.066Z,4.01
2019-01-17T16:50:30.615Z,4.01
2019-01-17T16:53:01.858Z,4.12
2019-01-17T16:55:33.457Z,4.10
2019-01-17T16:58:05.474Z,4.10
2019-01-17T17:00:36.760Z,4.29
2019-01-17T17:03:05.359Z,4.29
2019-01-17T17:05:33.939Z,4.41
2019-01-17T17:08:02.559Z,4.45
2019-01-17T17:10:31.162Z,4.70
2019-01-17T17:13:00.106Z,4.74
2019-01-17T17:15:28.720Z,4.56
2019-01-17T17:17:57.333Z,4.60
2019-01-17T17:20:26.899Z,4.60
2019-01-17T17:22:55.496Z,4.44
2019-01-17T17:25:24.539Z,4.21
2019-01-17T17:27:55.647Z,4.21
2019-01-17T17:30:26.247Z,4.18
2019-01-17T17:32:54.863Z,4.16
2019-01-17T17:35:24.098Z,4.14
2019-01-17T17:37:52.837Z,4.12
2019-01-17T17:40:24.089Z,4.14
2019-01-17T17:42:55.613Z,4.14
2019-01-17T17:45:24.383Z,4.12
2019-01-17T17:47:53.664Z,4.18
2019-01-17T17:50:26.349Z,4.38
2019-01-17T17:52:55.224Z,4.38
2019-01-17T17:55:23.850Z,4.42
2019-01-17T17:57:55.249Z,4.42
2019-01-17T18:00:27.462Z,4.23
2019-01-17T18:02:59.404Z,4.29
2019-01-17T18:05:28.006Z,4.11
2019-01-17T18:07:59.094Z,4.11
2019-01-17T18:10:27.760Z,3.90
2019-01-17T18:12:59.235Z,3.45
2019-01-17T18:15:30.407Z,2.76
2019-01-17T18:17:58.963Z,2.09
2019-01-17T18:20:27.568Z,1.85
2019-01-17T18:22:56.220Z,1.50
2019-01-17T18:25:24.893Z,1.54
2019-01-17T18:27:55.170Z,1.35
2019-01-17T18:30:27.761Z,1.27
2019-01-17T18:32:59.113Z,1.23
2019-01-17T18:35:30.570Z,1.19
2019-01-17T18:37:59.294Z,1.21
2019-01-17T18:40:28.303Z,1.16
2019-01-17T18:42:57.057Z,1.24
2019-01-17T18:45:26.949Z,1.36
2019-01-17T18:47:55.848Z,1.40
2019-01-17T18:50:35.514Z,1.42
2019-01-17T18:53:04.683Z,1.52
2019-01-17T18:55:33.730Z,1.55
2019-01-17T18:58:05.345Z,1.55
2019-01-17T19:00:35.010Z,1.58
2019-01-17T19:03:03.563Z,1.57
2019-01-17T19:05:34.936Z,1.67
2019-01-17T19:08:03.569Z,1.61
2019-01-17T19:10:32.329Z,1.76
2019-01-17T19:13:00.960Z,1.84
2019-01-17T19:15:31.564Z,1.96
2019-01-17T19:18:00.595Z,1.83
2019-01-17T19:20:29.456Z,1.96
2019-01-17T19:22:58.186Z,1.91
2019-01-17T19:25:26.906Z,1.88
2019-01-17T19:27:55.897Z,1.89
2019-01-17T19:30:31.959Z,1.94
2019-01-17T19:33:04.578Z,1.95
2019-01-17T19:35:33.188Z,2.08
2019-01-17T19:38:01.777Z,2.15
2019-01-17T19:40:32.731Z,2.19
2019-01-17T19:43:01.755Z,2.21
2019-01-17T19:45:33.803Z,2.26
2019-01-17T19:48:02.738Z,2.26
2019-01-17T19:50:35.948Z,2.17
2019-01-17T19:53:05.199Z,2.20
2019-01-17T19:55:33.774Z,2.26
2019-01-17T19:58:02.452Z,2.20
2019-01-17T20:00:31.003Z,2.32
2019-01-17T20:02:59.726Z,2.28
2019-01-17T20:05:30.876Z,2.34
2019-01-17T20:08:02.512Z,2.25
2019-01-17T20:10:33.781Z,2.20
2019-01-17T20:13:03.033Z,2.24
2019-01-17T20:15:31.768Z,2.24
2019-01-17T20:18:03.060Z,2.16
2019-01-17T20:20:34.472Z,2.09
2019-01-17T20:23:03.102Z,2.22
2019-01-17T20:25:34.499Z,2.12
2019-01-17T20:28:03.117Z,2.08
2019-01-17T20:30:55.309Z,2.15
2019-01-17T20:33:27.950Z,2.15
2019-01-17T20:35:56.580Z,2.19
2019-01-17T20:38:26.712Z,2.17
2019-01-17T20:40:58.432Z,2.23
2019-01-17T20:43:27.128Z,2.19
2019-01-17T20:45:58.861Z,2.25
2019-01-17T20:48:27.753Z,2.29
2019-01-17T20:50:56.280Z,2.28
2019-01-17T20:53:24.826Z,2.34
2019-01-17T20:55:55.088Z,2.37
2019-01-17T20:58:23.632Z,2.37
2019-01-17T21:01:17.981Z,2.38
2019-01-17T21:03:46.603Z,2.36
2019-01-17T21:06:15.154Z,2.35
2019-01-17T21:08:46.406Z,2.31
2019-01-17T21:11:18.231Z,2.43
2019-01-17T21:13:49.723Z,2.43
2019-01-17T21:16:21.632Z,2.41
2019-01-17T21:18:53.184Z,2.44
2019-01-17T21:21:21.758Z,2.37
2019-01-17T21:23:55.930Z,2.34
2019-01-17T21:26:27.334Z,2.39
2019-01-17T21:28:55.963Z,2.48
2019-01-17T21:31:26.148Z,2.40
2019-01-17T21:33:57.956Z,2.42
2019-01-17T21:36:26.609Z,2.26
2019-01-17T21:38:56.662Z,2.28
2019-01-17T21:41:27.966Z,2.24
2019-01-17T21:43:59.244Z,2.22
2019-01-17T21:46:27.797Z,2.32
2019-01-17T21:48:59.487Z,2.27
2019-01-17T21:51:31.195Z,2.27
2019-01-17T21:53:59.822Z,2.36
2019-01-17T21:56:28.425Z,2.40
2019-01-17T21:58:57.067Z,2.39
2019-01-17T22:01:25.654Z,2.41
2019-01-17T22:03:54.310Z,2.47
2019-01-17T22:06:23.341Z,2.50
2019-01-17T22:08:57.594Z,2.38
2019-01-17T22:11:26.203Z,2.39
2019-01-17T22:13:58.194Z,2.32
2019-01-17T22:16:26.907Z,2.25
2019-01-17T22:18:58.278Z,2.07
2019-01-17T22:21:26.901Z,1.93
2019-01-17T22:24:01.653Z,1.90
2019-01-17T22:26:30.374Z,1.78
2019-01-17T22:29:02.572Z,1.84
2019-01-17T22:31:31.312Z,1.73
2019-01-17T22:33:59.881Z,1.66
2019-01-17T22:36:31.620Z,1.63
2019-01-17T22:39:00.236Z,1.57
2019-01-17T22:41:28.862Z,1.60
2019-01-17T22:43:57.591Z,1.64
2019-01-17T22:46:26.212Z,1.65
2019-01-17T22:48:54.756Z,1.69
2019-01-17T22:51:25.065Z,1.69
2019-01-17T22:53:56.366Z,1.77
2019-01-17T22:56:25.096Z,1.76
2019-01-17T22:58:53.712Z,1.82
2019-01-17T23:01:23.489Z,1.86
2019-01-17T23:03:53.802Z,1.87
2019-01-17T23:06:22.458Z,1.88
2019-01-17T23:08:51.080Z,1.88
2019-01-17T23:11:19.702Z,1.97
2019-01-17T23:13:48.365Z,1.91
2019-01-17T23:16:17.064Z,1.95
2019-01-17T23:18:45.616Z,1.84
2019-01-17T23:21:14.221Z,1.88
2019-01-17T23:23:46.228Z,1.85
2019-01-17T23:26:14.770Z,1.85
2019-01-17T23:28:43.317Z,1.83
2019-01-17T23:31:11.884Z,1.99
2019-01-17T23:33:40.469Z,1.93
2019-01-17T23:36:09.011Z,1.98
2019-01-17T23:38:37.552Z,1.92
2019-01-17T23:41:06.129Z,1.99
2019-01-17T23:43:34.675Z,2.01
2019-01-17T23:46:03.490Z,2.00
2019-01-17T23:48:32.133Z,2.01
2019-01-17T23:51:00.676Z,2.06
2019-01-17T23:53:29.210Z,2.01
2019-01-17T23:55:57.911Z,1.90
2019-01-17T23:58:26.458Z,1.76
